sensor_id;sensor_type;location;lat;lon;timestamp;P1;durP1;ratioP1;P2;durP2;ratioP2
7879;SDS011;3985;49.366;2.738;2023-09-07T00:01:58;9.50;;;7.75;;
7879;SDS011;3985;49.366;2.738;2023-09-07T00:04:25;6.00;;;6.00;;
7879;SDS011;3985;49.366;2.738;2023-09-07T00:06:53;6.50;;;6.50;;
7879;SDS011;3985;49.366;2.738;2023-09-07T00:09:20;9.50;;;8.00;;
7879;SDS011;3985;49.366;2.738;2023-09-07T00:11:48;6.75;;;6.75;;
7879;SDS011;3985;49.366;2.738;2023-09-07T00:14:16;7.25;;;7.25;;
7879;SDS011;3985;49.366;2.738;2023-09-07T00:16:43;9.50;;;7.75;;
7879;SDS011;3985;49.366;2.738;2023-09-07T00:19:11;9.00;;;7.00;;
7879;SDS011;3985;49.366;2.738;2023-09-07T00:21:38;8.00;;;8.00;;
7879;SDS011;3985;49.366;2.738;2023-09-07T00:24:06;9.25;;;7.25;;
7879;SDS011;3985;49.366;2.738;2023-09-07T00:26:33;7.75;;;6.00;;
7879;SDS011;3985;49.366;2.738;2023-09-07T00:29:00;7.25;;;7.25;;
7879;SDS011;3985;49.366;2.738;2023-09-07T00:31:28;8.50;;;7.00;;
7879;SDS011;3985;49.366;2.738;2023-09-07T00:33:55;6.25;;;6.25;;
7879;SDS011;3985;49.366;2.738;2023-09-07T00:36:23;9.50;;;7.25;;
7879;SDS011;3985;49.366;2.738;2023-09-07T00:38:51;7.00;;;7.00;;
7879;SDS011;3985;49.366;2.738;2023-09-07T00:41:18;7.67;;;7.67;;
7879;SDS011;3985;49.366;2.738;2023-09-07T00:43:45;7.75;;;7.00;;
7879;SDS011;3985;49.366;2.738;2023-09-07T00:46:12;6.00;;;6.00;;
7879;SDS011;3985;49.366;2.738;2023-09-07T00:48:41;8.75;;;4.50;;
7879;SDS011;3985;49.366;2.738;2023-09-07T00:51:08;6.00;;;6.00;;
7879;SDS011;3985;49.366;2.738;2023-09-07T00:53:37;7.50;;;5.75;;
7879;SDS011;3985;49.366;2.738;2023-09-07T00:56:04;10.25;;;8.50;;
7879;SDS011;3985;49.366;2.738;2023-09-07T00:58:32;8.00;;;8.00;;
7879;SDS011;3985;49.366;2.738;2023-09-07T01:01:00;9.25;;;7.75;;
7879;SDS011;3985;49.366;2.738;2023-09-07T01:03:27;6.75;;;6.75;;
7879;SDS011;3985;49.366;2.738;2023-09-07T01:05:56;6.50;;;6.00;;
7879;SDS011;3985;49.366;2.738;2023-09-07T01:08:29;6.50;;;6.50;;
7879;SDS011;3985;49.366;2.738;2023-09-07T01:11:00;8.00;;;6.25;;
7879;SDS011;3985;49.366;2.738;2023-09-07T01:13:28;6.25;;;6.25;;
7879;SDS011;3985;49.366;2.738;2023-09-07T01:15:55;7.50;;;6.75;;
7879;SDS011;3985;49.366;2.738;2023-09-07T01:18:22;6.75;;;6.75;;
7879;SDS011;3985;49.366;2.738;2023-09-07T01:20:50;9.00;;;7.00;;
7879;SDS011;3985;49.366;2.738;2023-09-07T01:23:19;6.75;;;6.75;;
7879;SDS011;3985;49.366;2.738;2023-09-07T01:25:47;9.67;;;8.00;;
7879;SDS011;3985;49.366;2.738;2023-09-07T01:28:15;11.25;;;10.50;;
7879;SDS011;3985;49.366;2.738;2023-09-07T01:30:46;9.50;;;7.75;;
7879;SDS011;3985;49.366;2.738;2023-09-07T01:33:13;10.25;;;10.25;;
7879;SDS011;3985;49.366;2.738;2023-09-07T01:35:40;8.00;;;8.00;;
7879;SDS011;3985;49.366;2.738;2023-09-07T01:38:08;8.50;;;8.50;;
7879;SDS011;3985;49.366;2.738;2023-09-07T01:40:38;11.00;;;9.50;;
7879;SDS011;3985;49.366;2.738;2023-09-07T01:43:05;11.50;;;10.00;;
7879;SDS011;3985;49.366;2.738;2023-09-07T01:45:33;9.25;;;9.25;;
7879;SDS011;3985;49.366;2.738;2023-09-07T01:48:00;12.25;;;10.50;;
7879;SDS011;3985;49.366;2.738;2023-09-07T01:50:32;10.00;;;10.00;;
7879;SDS011;3985;49.366;2.738;2023-09-07T01:53:02;10.50;;;10.00;;
7879;SDS011;3985;49.366;2.738;2023-09-07T01:55:30;10.75;;;10.50;;
7879;SDS011;3985;49.366;2.738;2023-09-07T01:57:58;8.25;;;8.00;;
7879;SDS011;3985;49.366;2.738;2023-09-07T02:00:24;13.00;;;11.25;;
7879;SDS011;3985;49.366;2.738;2023-09-07T02:02:52;14.75;;;13.00;;
7879;SDS011;3985;49.366;2.738;2023-09-07T02:05:19;13.00;;;10.75;;
7879;SDS011;3985;49.366;2.738;2023-09-07T02:07:47;10.25;;;8.75;;
7879;SDS011;3985;49.366;2.738;2023-09-07T02:10:14;9.25;;;9.25;;
7879;SDS011;3985;49.366;2.738;2023-09-07T02:12:42;9.75;;;8.75;;
7879;SDS011;3985;49.366;2.738;2023-09-07T02:15:12;12.00;;;11.00;;
7879;SDS011;3985;49.366;2.738;2023-09-07T02:17:40;8.25;;;8.25;;
7879;SDS011;3985;49.366;2.738;2023-09-07T02:20:10;10.75;;;10.25;;
7879;SDS011;3985;49.366;2.738;2023-09-07T02:22:37;10.25;;;10.25;;
7879;SDS011;3985;49.366;2.738;2023-09-07T02:25:05;12.00;;;10.50;;
7879;SDS011;3985;49.366;2.738;2023-09-07T02:27:32;9.50;;;9.50;;
7879;SDS011;3985;49.366;2.738;2023-09-07T02:30:00;9.00;;;9.00;;
7879;SDS011;3985;49.366;2.738;2023-09-07T02:32:32;11.25;;;9.25;;
7879;SDS011;3985;49.366;2.738;2023-09-07T02:34:59;10.50;;;10.50;;
7879;SDS011;3985;49.366;2.738;2023-09-07T02:37:27;8.75;;;8.75;;
7879;SDS011;3985;49.366;2.738;2023-09-07T02:39:56;12.00;;;10.75;;
7879;SDS011;3985;49.366;2.738;2023-09-07T02:42:23;10.75;;;10.75;;
7879;SDS011;3985;49.366;2.738;2023-09-07T02:44:51;10.25;;;9.75;;
7879;SDS011;3985;49.366;2.738;2023-09-07T02:47:18;7.75;;;7.75;;
7879;SDS011;3985;49.366;2.738;2023-09-07T02:49:48;10.00;;;10.00;;
7879;SDS011;3985;49.366;2.738;2023-09-07T02:52:15;8.75;;;8.75;;
7879;SDS011;3985;49.366;2.738;2023-09-07T02:54:42;10.50;;;10.50;;
7879;SDS011;3985;49.366;2.738;2023-09-07T02:57:09;9.50;;;9.50;;
7879;SDS011;3985;49.366;2.738;2023-09-07T02:59:37;10.25;;;9.00;;
7879;SDS011;3985;49.366;2.738;2023-09-07T03:02:04;10.75;;;10.25;;
7879;SDS011;3985;49.366;2.738;2023-09-07T03:04:32;8.50;;;8.00;;
7879;SDS011;3985;49.366;2.738;2023-09-07T03:07:01;10.25;;;10.25;;
7879;SDS011;3985;49.366;2.738;2023-09-07T03:09:28;10.25;;;10.25;;
7879;SDS011;3985;49.366;2.738;2023-09-07T03:11:56;9.25;;;9.25;;
7879;SDS011;3985;49.366;2.738;2023-09-07T03:14:23;10.75;;;10.00;;
7879;SDS011;3985;49.366;2.738;2023-09-07T03:16:50;11.50;;;11.50;;
7879;SDS011;3985;49.366;2.738;2023-09-07T03:19:19;11.75;;;11.75;;
7879;SDS011;3985;49.366;2.738;2023-09-07T03:21:46;10.25;;;10.25;;
7879;SDS011;3985;49.366;2.738;2023-09-07T03:24:15;11.75;;;11.75;;
7879;SDS011;3985;49.366;2.738;2023-09-07T03:26:42;12.00;;;12.00;;
7879;SDS011;3985;49.366;2.738;2023-09-07T03:29:10;8.50;;;8.50;;
7879;SDS011;3985;49.366;2.738;2023-09-07T03:31:37;12.25;;;11.00;;
7879;SDS011;3985;49.366;2.738;2023-09-07T03:34:04;11.50;;;11.50;;
7879;SDS011;3985;49.366;2.738;2023-09-07T03:36:31;12.75;;;12.25;;
7879;SDS011;3985;49.366;2.738;2023-09-07T03:38:58;10.75;;;10.75;;
7879;SDS011;3985;49.366;2.738;2023-09-07T03:41:27;11.50;;;11.50;;
7879;SDS011;3985;49.366;2.738;2023-09-07T03:43:55;11.25;;;9.50;;
7879;SDS011;3985;49.366;2.738;2023-09-07T03:46:24;9.00;;;9.00;;
7879;SDS011;3985;49.366;2.738;2023-09-07T03:48:51;11.75;;;11.75;;
7879;SDS011;3985;49.366;2.738;2023-09-07T03:51:18;11.25;;;11.25;;
7879;SDS011;3985;49.366;2.738;2023-09-07T03:53:45;13.00;;;12.25;;
7879;SDS011;3985;49.366;2.738;2023-09-07T03:56:12;15.00;;;14.00;;
7879;SDS011;3985;49.366;2.738;2023-09-07T03:58:41;12.00;;;12.00;;
7879;SDS011;3985;49.366;2.738;2023-09-07T04:01:08;12.25;;;12.25;;
7879;SDS011;3985;49.366;2.738;2023-09-07T04:03:35;13.25;;;13.25;;
7879;SDS011;3985;49.366;2.738;2023-09-07T04:06:03;12.50;;;12.50;;
7879;SDS011;3985;49.366;2.738;2023-09-07T04:08:30;13.00;;;13.00;;
7879;SDS011;3985;49.366;2.738;2023-09-07T04:10:58;14.50;;;12.50;;
7879;SDS011;3985;49.366;2.738;2023-09-07T04:13:29;15.25;;;14.00;;
7879;SDS011;3985;49.366;2.738;2023-09-07T04:15:57;9.25;;;9.25;;
7879;SDS011;3985;49.366;2.738;2023-09-07T04:18:25;12.75;;;12.75;;
7879;SDS011;3985;49.366;2.738;2023-09-07T04:20:52;11.25;;;11.25;;
7879;SDS011;3985;49.366;2.738;2023-09-07T04:23:19;14.00;;;14.00;;
7879;SDS011;3985;49.366;2.738;2023-09-07T04:25:46;12.75;;;12.75;;
7879;SDS011;3985;49.366;2.738;2023-09-07T04:28:14;16.75;;;14.25;;
7879;SDS011;3985;49.366;2.738;2023-09-07T04:30:41;12.00;;;12.00;;
7879;SDS011;3985;49.366;2.738;2023-09-07T04:33:10;13.00;;;13.00;;
7879;SDS011;3985;49.366;2.738;2023-09-07T04:35:37;13.75;;;12.50;;
7879;SDS011;3985;49.366;2.738;2023-09-07T04:38:04;11.75;;;11.75;;
7879;SDS011;3985;49.366;2.738;2023-09-07T04:40:31;13.25;;;12.00;;
7879;SDS011;3985;49.366;2.738;2023-09-07T04:42:59;13.50;;;12.00;;
7879;SDS011;3985;49.366;2.738;2023-09-07T04:45:26;13.25;;;13.00;;
7879;SDS011;3985;49.366;2.738;2023-09-07T04:47:53;14.00;;;11.00;;
7879;SDS011;3985;49.366;2.738;2023-09-07T04:50:22;12.00;;;11.25;;
7879;SDS011;3985;49.366;2.738;2023-09-07T04:52:49;14.00;;;14.00;;
7879;SDS011;3985;49.366;2.738;2023-09-07T04:55:16;12.00;;;12.00;;
7879;SDS011;3985;49.366;2.738;2023-09-07T04:57:43;10.00;;;10.00;;
7879;SDS011;3985;49.366;2.738;2023-09-07T05:00:11;12.50;;;12.50;;
7879;SDS011;3985;49.366;2.738;2023-09-07T05:02:38;13.00;;;11.00;;
7879;SDS011;3985;49.366;2.738;2023-09-07T05:05:08;13.00;;;13.00;;
7879;SDS011;3985;49.366;2.738;2023-09-07T05:07:36;13.25;;;13.25;;
7879;SDS011;3985;49.366;2.738;2023-09-07T05:10:07;14.00;;;12.50;;
7879;SDS011;3985;49.366;2.738;2023-09-07T05:12:37;12.25;;;12.25;;
7879;SDS011;3985;49.366;2.738;2023-09-07T05:15:05;15.00;;;15.00;;
7879;SDS011;3985;49.366;2.738;2023-09-07T05:17:36;11.75;;;11.75;;
7879;SDS011;3985;49.366;2.738;2023-09-07T05:20:03;13.50;;;13.50;;
7879;SDS011;3985;49.366;2.738;2023-09-07T05:22:31;12.50;;;12.25;;
7879;SDS011;3985;49.366;2.738;2023-09-07T05:25:03;13.00;;;13.00;;
7879;SDS011;3985;49.366;2.738;2023-09-07T05:27:30;17.75;;;17.75;;
7879;SDS011;3985;49.366;2.738;2023-09-07T05:29:59;12.75;;;12.75;;
7879;SDS011;3985;49.366;2.738;2023-09-07T05:32:30;14.00;;;14.00;;
7879;SDS011;3985;49.366;2.738;2023-09-07T05:34:57;15.75;;;14.00;;
7879;SDS011;3985;49.366;2.738;2023-09-07T05:37:27;14.25;;;12.50;;
7879;SDS011;3985;49.366;2.738;2023-09-07T05:39:58;10.50;;;10.50;;
7879;SDS011;3985;49.366;2.738;2023-09-07T05:42:28;13.25;;;13.25;;
7879;SDS011;3985;49.366;2.738;2023-09-07T05:44:57;12.00;;;12.00;;
7879;SDS011;3985;49.366;2.738;2023-09-07T05:47:28;12.00;;;12.00;;
7879;SDS011;3985;49.366;2.738;2023-09-07T05:49:57;16.00;;;16.00;;
7879;SDS011;3985;49.366;2.738;2023-09-07T05:52:25;11.25;;;11.25;;
7879;SDS011;3985;49.366;2.738;2023-09-07T05:54:52;12.25;;;12.25;;
7879;SDS011;3985;49.366;2.738;2023-09-07T05:57:20;15.75;;;13.25;;
7879;SDS011;3985;49.366;2.738;2023-09-07T05:59:54;14.25;;;14.25;;
7879;SDS011;3985;49.366;2.738;2023-09-07T06:02:21;14.25;;;14.25;;
7879;SDS011;3985;49.366;2.738;2023-09-07T06:04:51;13.25;;;12.00;;
7879;SDS011;3985;49.366;2.738;2023-09-07T06:07:21;14.75;;;14.75;;
7879;SDS011;3985;49.366;2.738;2023-09-07T06:09:48;16.25;;;15.00;;
7879;SDS011;3985;49.366;2.738;2023-09-07T06:12:16;12.75;;;12.50;;
7879;SDS011;3985;49.366;2.738;2023-09-07T06:14:53;14.75;;;14.75;;
7879;SDS011;3985;49.366;2.738;2023-09-07T06:17:20;13.25;;;13.25;;
7879;SDS011;3985;49.366;2.738;2023-09-07T06:19:47;15.75;;;14.00;;
7879;SDS011;3985;49.366;2.738;2023-09-07T06:22:15;16.00;;;14.75;;
7879;SDS011;3985;49.366;2.738;2023-09-07T06:24:42;14.25;;;14.25;;
7879;SDS011;3985;49.366;2.738;2023-09-07T06:27:10;14.50;;;13.75;;
7879;SDS011;3985;49.366;2.738;2023-09-07T06:29:40;18.25;;;18.25;;
7879;SDS011;3985;49.366;2.738;2023-09-07T06:32:15;17.00;;;17.00;;
7879;SDS011;3985;49.366;2.738;2023-09-07T06:34:51;18.00;;;18.00;;
7879;SDS011;3985;49.366;2.738;2023-09-07T06:37:19;17.25;;;17.25;;
7879;SDS011;3985;49.366;2.738;2023-09-07T06:39:54;19.25;;;18.25;;
7879;SDS011;3985;49.366;2.738;2023-09-07T06:42:22;19.00;;;19.00;;
7879;SDS011;3985;49.366;2.738;2023-09-07T06:44:49;15.75;;;15.75;;
7879;SDS011;3985;49.366;2.738;2023-09-07T06:47:18;21.50;;;21.50;;
7879;SDS011;3985;49.366;2.738;2023-09-07T06:49:46;15.25;;;15.25;;
7879;SDS011;3985;49.366;2.738;2023-09-07T06:52:13;21.00;;;18.00;;
7879;SDS011;3985;49.366;2.738;2023-09-07T06:54:43;17.25;;;17.25;;
7879;SDS011;3985;49.366;2.738;2023-09-07T06:57:12;18.50;;;17.00;;
7879;SDS011;3985;49.366;2.738;2023-09-07T06:59:40;18.75;;;18.50;;
7879;SDS011;3985;49.366;2.738;2023-09-07T07:02:08;18.75;;;18.75;;
7879;SDS011;3985;49.366;2.738;2023-09-07T07:04:37;20.25;;;18.75;;
7879;SDS011;3985;49.366;2.738;2023-09-07T07:07:04;20.50;;;18.25;;
7879;SDS011;3985;49.366;2.738;2023-09-07T07:09:32;18.75;;;15.75;;
7879;SDS011;3985;49.366;2.738;2023-09-07T07:12:01;16.75;;;14.50;;
7879;SDS011;3985;49.366;2.738;2023-09-07T07:14:30;19.75;;;16.75;;
7879;SDS011;3985;49.366;2.738;2023-09-07T07:16:59;13.00;;;13.00;;
7879;SDS011;3985;49.366;2.738;2023-09-07T07:19:30;17.75;;;17.75;;
7879;SDS011;3985;49.366;2.738;2023-09-07T07:21:58;19.00;;;17.00;;
7879;SDS011;3985;49.366;2.738;2023-09-07T07:24:26;14.50;;;14.00;;
7879;SDS011;3985;49.366;2.738;2023-09-07T07:26:53;16.50;;;15.00;;
7879;SDS011;3985;49.366;2.738;2023-09-07T07:29:20;11.75;;;11.75;;
7879;SDS011;3985;49.366;2.738;2023-09-07T07:31:50;20.50;;;17.00;;
7879;SDS011;3985;49.366;2.738;2023-09-07T07:34:18;17.00;;;15.75;;
7879;SDS011;3985;49.366;2.738;2023-09-07T07:36:45;14.50;;;14.50;;
7879;SDS011;3985;49.366;2.738;2023-09-07T07:39:16;14.25;;;14.25;;
7879;SDS011;3985;49.366;2.738;2023-09-07T07:41:46;15.75;;;14.75;;
7879;SDS011;3985;49.366;2.738;2023-09-07T07:44:13;16.50;;;16.50;;
7879;SDS011;3985;49.366;2.738;2023-09-07T07:46:40;18.00;;;15.50;;
7879;SDS011;3985;49.366;2.738;2023-09-07T07:49:08;16.00;;;14.75;;
7879;SDS011;3985;49.366;2.738;2023-09-07T07:51:36;15.20;;;15.00;;
7879;SDS011;3985;49.366;2.738;2023-09-07T07:54:04;15.20;;;13.40;;
7879;SDS011;3985;49.366;2.738;2023-09-07T07:56:32;14.40;;;14.40;;
7879;SDS011;3985;49.366;2.738;2023-09-07T07:59:00;12.80;;;11.40;;
7879;SDS011;3985;49.366;2.738;2023-09-07T08:01:28;13.20;;;13.20;;
7879;SDS011;3985;49.366;2.738;2023-09-07T08:03:55;12.80;;;11.20;;
7879;SDS011;3985;49.366;2.738;2023-09-07T08:06:22;15.40;;;14.00;;
7879;SDS011;3985;49.366;2.738;2023-09-07T08:08:50;13.80;;;13.00;;
7879;SDS011;3985;49.366;2.738;2023-09-07T08:11:17;14.80;;;12.80;;
7879;SDS011;3985;49.366;2.738;2023-09-07T08:13:47;11.40;;;11.40;;
7879;SDS011;3985;49.366;2.738;2023-09-07T08:16:17;12.20;;;12.00;;
7879;SDS011;3985;49.366;2.738;2023-09-07T08:18:48;13.60;;;12.20;;
7879;SDS011;3985;49.366;2.738;2023-09-07T08:21:17;14.00;;;13.60;;
7879;SDS011;3985;49.366;2.738;2023-09-07T08:23:48;11.40;;;10.60;;
7879;SDS011;3985;49.366;2.738;2023-09-07T08:26:19;12.20;;;11.40;;
7879;SDS011;3985;49.366;2.738;2023-09-07T08:28:48;10.80;;;10.80;;
7879;SDS011;3985;49.366;2.738;2023-09-07T08:31:16;12.80;;;12.00;;
7879;SDS011;3985;49.366;2.738;2023-09-07T08:33:46;12.20;;;12.20;;
7879;SDS011;3985;49.366;2.738;2023-09-07T08:36:16;14.80;;;14.80;;
7879;SDS011;3985;49.366;2.738;2023-09-07T08:38:47;15.40;;;13.60;;
7879;SDS011;3985;49.366;2.738;2023-09-07T08:41:14;12.60;;;11.20;;
7879;SDS011;3985;49.366;2.738;2023-09-07T08:43:44;15.80;;;11.80;;
7879;SDS011;3985;49.366;2.738;2023-09-07T08:46:15;15.00;;;10.40;;
7879;SDS011;3985;49.366;2.738;2023-09-07T08:48:45;9.00;;;9.00;;
7879;SDS011;3985;49.366;2.738;2023-09-07T08:51:13;12.00;;;11.20;;
7879;SDS011;3985;49.366;2.738;2023-09-07T08:53:42;10.00;;;10.00;;
7879;SDS011;3985;49.366;2.738;2023-09-07T08:56:11;12.40;;;12.40;;
7879;SDS011;3985;49.366;2.738;2023-09-07T08:58:39;13.20;;;11.80;;
7879;SDS011;3985;49.366;2.738;2023-09-07T09:01:06;13.80;;;11.60;;
7879;SDS011;3985;49.366;2.738;2023-09-07T09:03:36;9.60;;;9.60;;
7879;SDS011;3985;49.366;2.738;2023-09-07T09:06:03;12.00;;;12.00;;
7879;SDS011;3985;49.366;2.738;2023-09-07T09:08:41;12.80;;;11.00;;
7879;SDS011;3985;49.366;2.738;2023-09-07T09:11:08;10.00;;;9.00;;
7879;SDS011;3985;49.366;2.738;2023-09-07T09:13:36;10.20;;;7.60;;
7879;SDS011;3985;49.366;2.738;2023-09-07T09:16:03;9.00;;;9.00;;
7879;SDS011;3985;49.366;2.738;2023-09-07T09:18:30;11.00;;;11.00;;
7879;SDS011;3985;49.366;2.738;2023-09-07T09:20:59;8.40;;;8.40;;
7879;SDS011;3985;49.366;2.738;2023-09-07T09:23:29;10.40;;;9.40;;
7879;SDS011;3985;49.366;2.738;2023-09-07T09:25:58;13.20;;;10.00;;
7879;SDS011;3985;49.366;2.738;2023-09-07T09:28:28;9.40;;;9.40;;
7879;SDS011;3985;49.366;2.738;2023-09-07T09:30:56;11.60;;;9.80;;
7879;SDS011;3985;49.366;2.738;2023-09-07T09:33:27;8.40;;;8.40;;
7879;SDS011;3985;49.366;2.738;2023-09-07T09:35:56;11.20;;;11.00;;
7879;SDS011;3985;49.366;2.738;2023-09-07T09:38:25;8.40;;;8.40;;
7879;SDS011;3985;49.366;2.738;2023-09-07T09:40:52;10.00;;;8.40;;
7879;SDS011;3985;49.366;2.738;2023-09-07T09:43:20;9.40;;;8.40;;
7879;SDS011;3985;49.366;2.738;2023-09-07T09:45:48;10.00;;;10.00;;
7879;SDS011;3985;49.366;2.738;2023-09-07T09:48:17;10.00;;;10.00;;
7879;SDS011;3985;49.366;2.738;2023-09-07T09:50:46;8.00;;;8.00;;
7879;SDS011;3985;49.366;2.738;2023-09-07T09:53:17;10.60;;;9.00;;
7879;SDS011;3985;49.366;2.738;2023-09-07T09:55:45;10.00;;;10.00;;
7879;SDS011;3985;49.366;2.738;2023-09-07T09:58:17;9.00;;;8.60;;
7879;SDS011;3985;49.366;2.738;2023-09-07T10:00:45;9.20;;;9.20;;
7879;SDS011;3985;49.366;2.738;2023-09-07T10:03:15;9.60;;;9.60;;
7879;SDS011;3985;49.366;2.738;2023-09-07T10:05:45;10.40;;;10.40;;
7879;SDS011;3985;49.366;2.738;2023-09-07T10:08:13;11.00;;;8.00;;
7879;SDS011;3985;49.366;2.738;2023-09-07T10:10:43;10.60;;;10.40;;
7879;SDS011;3985;49.366;2.738;2023-09-07T10:13:13;8.60;;;8.60;;
7879;SDS011;3985;49.366;2.738;2023-09-07T10:15:41;12.40;;;10.40;;
7879;SDS011;3985;49.366;2.738;2023-09-07T10:18:11;11.00;;;9.00;;
7879;SDS011;3985;49.366;2.738;2023-09-07T10:20:52;10.00;;;10.00;;
7879;SDS011;3985;49.366;2.738;2023-09-07T10:23:21;11.80;;;10.00;;
7879;SDS011;3985;49.366;2.738;2023-09-07T10:26:02;9.60;;;9.20;;
7879;SDS011;3985;49.366;2.738;2023-09-07T10:28:30;10.40;;;9.40;;
7879;SDS011;3985;49.366;2.738;2023-09-07T10:31:01;10.80;;;10.80;;
7879;SDS011;3985;49.366;2.738;2023-09-07T10:33:30;8.20;;;8.20;;
7879;SDS011;3985;49.366;2.738;2023-09-07T10:35:57;8.40;;;8.40;;
7879;SDS011;3985;49.366;2.738;2023-09-07T10:38:25;7.60;;;7.60;;
7879;SDS011;3985;49.366;2.738;2023-09-07T10:40:55;9.20;;;9.20;;
7879;SDS011;3985;49.366;2.738;2023-09-07T10:43:31;9.60;;;9.60;;
7879;SDS011;3985;49.366;2.738;2023-09-07T10:46:00;7.00;;;7.00;;
7879;SDS011;3985;49.366;2.738;2023-09-07T10:48:28;9.60;;;9.60;;
7879;SDS011;3985;49.366;2.738;2023-09-07T10:51:00;10.00;;;10.00;;
7879;SDS011;3985;49.366;2.738;2023-09-07T10:53:30;9.20;;;8.00;;
7879;SDS011;3985;49.366;2.738;2023-09-07T10:55:58;9.80;;;9.80;;
7879;SDS011;3985;49.366;2.738;2023-09-07T10:58:29;8.40;;;8.40;;
7879;SDS011;3985;49.366;2.738;2023-09-07T11:00:59;10.40;;;8.40;;
7879;SDS011;3985;49.366;2.738;2023-09-07T11:03:28;7.40;;;7.40;;
7879;SDS011;3985;49.366;2.738;2023-09-07T11:05:55;7.60;;;7.60;;
7879;SDS011;3985;49.366;2.738;2023-09-07T11:08:27;7.40;;;7.40;;
7879;SDS011;3985;49.366;2.738;2023-09-07T11:10:56;6.60;;;6.60;;
7879;SDS011;3985;49.366;2.738;2023-09-07T11:13:23;6.00;;;6.00;;
7879;SDS011;3985;49.366;2.738;2023-09-07T11:15:54;7.00;;;7.00;;
7879;SDS011;3985;49.366;2.738;2023-09-07T11:18:22;7.80;;;7.00;;
7879;SDS011;3985;49.366;2.738;2023-09-07T11:20:50;13.40;;;8.20;;
7879;SDS011;3985;49.366;2.738;2023-09-07T11:23:19;8.80;;;8.80;;
7879;SDS011;3985;49.366;2.738;2023-09-07T11:25:48;8.00;;;8.00;;
7879;SDS011;3985;49.366;2.738;2023-09-07T11:28:17;8.00;;;7.00;;
7879;SDS011;3985;49.366;2.738;2023-09-07T11:30:50;6.40;;;6.40;;
7879;SDS011;3985;49.366;2.738;2023-09-07T11:33:20;7.00;;;7.00;;
7879;SDS011;3985;49.366;2.738;2023-09-07T11:35:48;8.00;;;7.00;;
7879;SDS011;3985;49.366;2.738;2023-09-07T11:38:15;9.00;;;9.00;;
7879;SDS011;3985;49.366;2.738;2023-09-07T11:40:43;8.00;;;8.00;;
7879;SDS011;3985;49.366;2.738;2023-09-07T11:43:11;7.00;;;7.00;;
7879;SDS011;3985;49.366;2.738;2023-09-07T11:45:38;8.40;;;8.40;;
7879;SDS011;3985;49.366;2.738;2023-09-07T11:48:06;10.00;;;10.00;;
7879;SDS011;3985;49.366;2.738;2023-09-07T11:50:36;9.20;;;8.00;;
7879;SDS011;3985;49.366;2.738;2023-09-07T11:53:05;9.20;;;9.20;;
7879;SDS011;3985;49.366;2.738;2023-09-07T11:55:33;9.00;;;9.00;;
7879;SDS011;3985;49.366;2.738;2023-09-07T11:58:00;8.40;;;8.40;;
7879;SDS011;3985;49.366;2.738;2023-09-07T12:00:28;8.80;;;8.80;;
7879;SDS011;3985;49.366;2.738;2023-09-07T12:02:56;7.60;;;7.60;;
7879;SDS011;3985;49.366;2.738;2023-09-07T12:05:23;10.00;;;9.00;;
7879;SDS011;3985;49.366;2.738;2023-09-07T12:07:52;8.20;;;8.20;;
7879;SDS011;3985;49.366;2.738;2023-09-07T12:10:19;8.00;;;8.00;;
7879;SDS011;3985;49.366;2.738;2023-09-07T12:12:47;10.00;;;8.40;;
7879;SDS011;3985;49.366;2.738;2023-09-07T12:15:17;6.20;;;6.20;;
7879;SDS011;3985;49.366;2.738;2023-09-07T12:17:44;9.00;;;9.00;;
7879;SDS011;3985;49.366;2.738;2023-09-07T12:20:11;8.40;;;7.60;;
7879;SDS011;3985;49.366;2.738;2023-09-07T12:22:39;8.00;;;8.00;;
7879;SDS011;3985;49.366;2.738;2023-09-07T12:25:08;7.40;;;7.40;;
7879;SDS011;3985;49.366;2.738;2023-09-07T12:27:39;8.20;;;8.20;;
7879;SDS011;3985;49.366;2.738;2023-09-07T12:30:07;10.20;;;8.80;;
7879;SDS011;3985;49.366;2.738;2023-09-07T12:32:38;7.40;;;7.40;;
7879;SDS011;3985;49.366;2.738;2023-09-07T12:35:05;5.60;;;5.40;;
7879;SDS011;3985;49.366;2.738;2023-09-07T12:37:33;7.80;;;7.80;;
7879;SDS011;3985;49.366;2.738;2023-09-07T12:40:01;9.80;;;9.40;;
7879;SDS011;3985;49.366;2.738;2023-09-07T12:42:37;9.40;;;9.40;;
7879;SDS011;3985;49.366;2.738;2023-09-07T12:45:06;9.20;;;7.20;;
7879;SDS011;3985;49.366;2.738;2023-09-07T12:47:34;8.60;;;8.60;;
7879;SDS011;3985;49.366;2.738;2023-09-07T12:50:02;9.60;;;9.60;;
7879;SDS011;3985;49.366;2.738;2023-09-07T12:52:30;7.80;;;7.80;;
7879;SDS011;3985;49.366;2.738;2023-09-07T12:54:58;8.40;;;7.60;;
7879;SDS011;3985;49.366;2.738;2023-09-07T12:57:27;7.80;;;7.80;;
7879;SDS011;3985;49.366;2.738;2023-09-07T12:59:55;5.80;;;5.80;;
7879;SDS011;3985;49.366;2.738;2023-09-07T13:02:25;6.80;;;6.80;;
7879;SDS011;3985;49.366;2.738;2023-09-07T13:04:53;9.20;;;8.60;;
7879;SDS011;3985;49.366;2.738;2023-09-07T13:07:20;8.80;;;7.80;;
7879;SDS011;3985;49.366;2.738;2023-09-07T13:09:48;7.80;;;6.80;;
7879;SDS011;3985;49.366;2.738;2023-09-07T13:12:15;6.80;;;6.80;;
7879;SDS011;3985;49.366;2.738;2023-09-07T13:14:42;5.20;;;5.20;;
7879;SDS011;3985;49.366;2.738;2023-09-07T13:17:12;9.40;;;8.00;;
7879;SDS011;3985;49.366;2.738;2023-09-07T13:19:40;6.20;;;6.20;;
7879;SDS011;3985;49.366;2.738;2023-09-07T13:22:08;4.80;;;4.80;;
7879;SDS011;3985;49.366;2.738;2023-09-07T13:24:35;7.80;;;7.80;;
7879;SDS011;3985;49.366;2.738;2023-09-07T13:27:03;6.80;;;6.80;;
7879;SDS011;3985;49.366;2.738;2023-09-07T13:29:33;7.00;;;7.00;;
7879;SDS011;3985;49.366;2.738;2023-09-07T13:32:07;7.80;;;7.80;;
7879;SDS011;3985;49.366;2.738;2023-09-07T13:34:37;6.60;;;6.60;;
7879;SDS011;3985;49.366;2.738;2023-09-07T13:37:04;7.40;;;7.40;;
7879;SDS011;3985;49.366;2.738;2023-09-07T13:39:32;6.40;;;6.00;;
7879;SDS011;3985;49.366;2.738;2023-09-07T13:41:59;5.40;;;5.40;;
7879;SDS011;3985;49.366;2.738;2023-09-07T13:44:26;7.00;;;7.00;;
7879;SDS011;3985;49.366;2.738;2023-09-07T13:46:54;9.80;;;7.80;;
7879;SDS011;3985;49.366;2.738;2023-09-07T13:49:21;8.00;;;8.00;;
7879;SDS011;3985;49.366;2.738;2023-09-07T13:51:50;7.60;;;7.60;;
7879;SDS011;3985;49.366;2.738;2023-09-07T13:54:17;6.00;;;6.00;;
7879;SDS011;3985;49.366;2.738;2023-09-07T13:56:44;7.00;;;7.00;;
7879;SDS011;3985;49.366;2.738;2023-09-07T13:59:12;6.20;;;6.20;;
7879;SDS011;3985;49.366;2.738;2023-09-07T14:01:40;7.00;;;6.60;;
7879;SDS011;3985;49.366;2.738;2023-09-07T14:04:08;6.60;;;6.60;;
7879;SDS011;3985;49.366;2.738;2023-09-07T14:06:35;6.60;;;6.60;;
7879;SDS011;3985;49.366;2.738;2023-09-07T14:09:04;7.60;;;7.60;;
7879;SDS011;3985;49.366;2.738;2023-09-07T14:11:32;8.00;;;8.00;;
7879;SDS011;3985;49.366;2.738;2023-09-07T14:14:01;8.80;;;8.80;;
7879;SDS011;3985;49.366;2.738;2023-09-07T14:16:28;7.40;;;5.80;;
7879;SDS011;3985;49.366;2.738;2023-09-07T14:18:55;7.60;;;7.60;;
7879;SDS011;3985;49.366;2.738;2023-09-07T14:21:23;6.00;;;6.00;;
7879;SDS011;3985;49.366;2.738;2023-09-07T14:23:50;8.00;;;8.00;;
7879;SDS011;3985;49.366;2.738;2023-09-07T14:26:19;6.80;;;6.40;;
7879;SDS011;3985;49.366;2.738;2023-09-07T14:28:47;9.50;;;6.25;;
7879;SDS011;3985;49.366;2.738;2023-09-07T14:31:15;7.20;;;6.40;;
7879;SDS011;3985;49.366;2.738;2023-09-07T14:33:42;7.60;;;7.60;;
7879;SDS011;3985;49.366;2.738;2023-09-07T14:36:10;7.80;;;7.80;;
7879;SDS011;3985;49.366;2.738;2023-09-07T14:38:37;6.40;;;6.40;;
7879;SDS011;3985;49.366;2.738;2023-09-07T14:41:06;5.20;;;5.20;;
7879;SDS011;3985;49.366;2.738;2023-09-07T14:43:37;7.20;;;7.20;;
7879;SDS011;3985;49.366;2.738;2023-09-07T14:46:05;10.00;;;8.40;;
7879;SDS011;3985;49.366;2.738;2023-09-07T14:48:32;6.60;;;6.60;;
7879;SDS011;3985;49.366;2.738;2023-09-07T14:50:59;6.00;;;6.00;;
7879;SDS011;3985;49.366;2.738;2023-09-07T14:53:27;6.20;;;6.20;;
7879;SDS011;3985;49.366;2.738;2023-09-07T14:55:54;6.00;;;6.00;;
7879;SDS011;3985;49.366;2.738;2023-09-07T14:58:22;7.20;;;7.20;;
7879;SDS011;3985;49.366;2.738;2023-09-07T15:00:52;8.20;;;6.80;;
7879;SDS011;3985;49.366;2.738;2023-09-07T15:03:19;7.20;;;7.20;;
7879;SDS011;3985;49.366;2.738;2023-09-07T15:05:46;6.40;;;6.40;;
7879;SDS011;3985;49.366;2.738;2023-09-07T15:08:14;5.80;;;5.80;;